createdAt,value
2023-04-17T00:02:19.342Z,99544.06
2023-04-17T00:05:21.113Z,99541.89
2023-04-17T00:08:22.709Z,99539.61
2023-04-17T00:11:24.442Z,99544.52
2023-04-17T00:14:25.985Z,99543.86
2023-04-17T00:17:27.674Z,99540.70
2023-04-17T00:20:29.478Z,99538.67
2023-04-17T00:23:30.987Z,99536.20
2023-04-17T00:26:32.651Z,99540.73
2023-04-17T00:29:34.268Z,99540.42
2023-04-17T00:32:35.994Z,99542.40
2023-04-17T00:35:37.733Z,99536.45
2023-04-17T00:38:39.833Z,99536.30
2023-04-17T00:41:41.435Z,99536.08
2023-04-17T00:44:42.978Z,99536.36
2023-04-17T00:47:44.718Z,99536.72
2023-04-17T00:50:46.311Z,99539.30
2023-04-17T00:53:48.231Z,99543.33
2023-04-17T00:56:51.198Z,99553.95
2023-04-17T00:59:53.098Z,99556.08
2023-04-17T01:02:57.200Z,99549.79
2023-04-17T01:05:59.363Z,99553.66
2023-04-17T01:09:01.319Z,99550.64
2023-04-17T01:12:24.295Z,99553.94
2023-04-17T01:15:26.116Z,99548.52
2023-04-17T01:18:27.893Z,99545.59
2023-04-17T01:21:29.698Z,99546.84
2023-04-17T01:24:31.258Z,99542.73
2023-04-17T01:27:32.871Z,99542.76
2023-04-17T01:30:34.432Z,99540.40
2023-04-17T01:33:36.061Z,99539.44
2023-04-17T01:36:37.700Z,99542.94
2023-04-17T01:39:39.223Z,99538.60
2023-04-17T01:42:40.955Z,99541.65
2023-04-17T01:45:42.586Z,99547.52
2023-04-17T01:48:44.183Z,99543.69
2023-04-17T01:51:45.837Z,99539.43
2023-04-17T01:54:47.436Z,99534.30
2023-04-17T01:57:49.916Z,99528.90
2023-04-17T02:00:51.596Z,99531.23
2023-04-17T02:03:53.215Z,99539.98
2023-04-17T02:06:55.166Z,99545.88
2023-04-17T02:09:56.672Z,99541.14
2023-04-17T02:12:58.402Z,99542.85
2023-04-17T02:15:59.918Z,99538.58
2023-04-17T02:19:01.605Z,99542.52
2023-04-17T02:22:03.192Z,99539.08
2023-04-17T02:25:05.149Z,99539.93
2023-04-17T02:28:06.800Z,99540.16
2023-04-17T02:31:08.817Z,99547.42
2023-04-17T02:34:10.608Z,99553.06
2023-04-17T02:37:12.324Z,99551.68
2023-04-17T02:40:14.932Z,99554.87
2023-04-17T02:43:16.592Z,99551.35
2023-04-17T02:46:18.215Z,99553.13
2023-04-17T02:49:19.926Z,99556.05
2023-04-17T02:52:22.042Z,99558.66
2023-04-17T02:55:23.570Z,99556.66
2023-04-17T02:58:25.253Z,99561.72
2023-04-17T03:01:27.024Z,99561.98
2023-04-17T03:04:28.575Z,99564.61
2023-04-17T03:07:30.168Z,99567.71
2023-04-17T03:10:31.888Z,99570.48
2023-04-17T03:13:34.917Z,99572.05
2023-04-17T03:16:36.654Z,99567.09
2023-04-17T03:19:38.368Z,99571.86
2023-04-17T03:22:39.944Z,99575.08
2023-04-17T03:25:41.711Z,99574.80
2023-04-17T03:28:43.228Z,99578.81
2023-04-17T03:31:45.046Z,99575.44
2023-04-17T03:34:47.168Z,99576.29
2023-04-17T03:37:48.824Z,99570.78
2023-04-17T03:40:50.522Z,99566.05
2023-04-17T03:43:52.146Z,99577.55
2023-04-17T03:46:53.814Z,99577.34
2023-04-17T03:49:55.718Z,99583.25
2023-04-17T03:52:57.535Z,99594.77
2023-04-17T03:55:59.191Z,99594.50
2023-04-17T03:59:00.761Z,99594.40
2023-04-17T04:02:02.673Z,99595.10
2023-04-17T04:05:04.784Z,99594.17
2023-04-17T04:08:06.695Z,99593.91
2023-04-17T04:11:08.288Z,99594.21
2023-04-17T04:14:09.947Z,99593.02
2023-04-17T04:17:11.503Z,99589.13
2023-04-17T04:20:13.172Z,99591.57
2023-04-17T04:23:15.044Z,99590.53
2023-04-17T04:26:16.617Z,99585.36
2023-04-17T04:29:18.317Z,99584.14
2023-04-17T04:32:19.946Z,99577.83
2023-04-17T04:35:21.774Z,99581.77
2023-04-17T04:38:23.542Z,99586.71
2023-04-17T04:41:26.281Z,99588.80
2023-04-17T04:44:27.925Z,99588.31
2023-04-17T04:47:29.456Z,99585.65
2023-04-17T04:50:31.899Z,99587.73
2023-04-17T04:53:33.575Z,99585.60
2023-04-17T04:56:35.275Z,99587.65
2023-04-17T04:59:38.949Z,99595.83
2023-04-17T05:02:41.049Z,99604.46
2023-04-17T05:05:42.982Z,99601.09
2023-04-17T05:08:44.587Z,99597.98
2023-04-17T05:11:46.143Z,99600.30
2023-04-17T05:14:47.779Z,99609.95
2023-04-17T05:17:49.412Z,99612.56
2023-04-17T05:20:51.687Z,99611.88
2023-04-17T05:23:53.786Z,99618.29
2023-04-17T05:26:55.425Z,99616.70
2023-04-17T05:29:56.964Z,99618.19
2023-04-17T05:32:58.900Z,99613.96
2023-04-17T05:36:00.631Z,99610.59
2023-04-17T05:39:02.317Z,99617.14
2023-04-17T05:42:04.224Z,99610.59
2023-04-17T05:45:06.310Z,99614.46
2023-04-17T05:48:07.968Z,99621.45
2023-04-17T05:51:09.623Z,99621.14
2023-04-17T05:54:11.274Z,99623.85
2023-04-17T05:57:12.867Z,99624.14
2023-04-17T06:00:15.128Z,99627.90
2023-04-17T06:03:18.265Z,99628.23
2023-04-17T06:06:20.506Z,99628.59
2023-04-17T06:09:23.520Z,99630.70
2023-04-17T06:12:27.288Z,99626.00
2023-04-17T06:15:29.092Z,99629.70
2023-04-17T06:18:30.763Z,99621.43
2023-04-17T06:21:32.592Z,99621.42
2023-04-17T06:24:34.599Z,99625.16
2023-04-17T06:27:37.267Z,99625.69
2023-04-17T06:30:39.286Z,99624.60
2023-04-17T06:33:40.988Z,99624.41
2023-04-17T06:36:42.661Z,99626.27
2023-04-17T06:39:44.300Z,99629.17
2023-04-17T06:42:46.001Z,99630.06
2023-04-17T06:45:48.483Z,99631.64
2023-04-17T06:48:50.158Z,99627.36
2023-04-17T06:51:51.756Z,99625.33
2023-04-17T06:54:56.681Z,99632.10
2023-04-17T06:57:58.245Z,99639.38
2023-04-17T07:00:59.816Z,99644.02
2023-04-17T07:04:01.618Z,99641.87
2023-04-17T07:07:03.461Z,99645.73
2023-04-17T07:10:06.437Z,99643.70
2023-04-17T07:13:08.008Z,99645.73
2023-04-17T07:16:09.688Z,99643.97
2023-04-17T07:19:11.660Z,99641.91
2023-04-17T07:22:13.612Z,99642.05
2023-04-17T07:25:15.605Z,99649.23
2023-04-17T07:28:18.032Z,99648.27
2023-04-17T07:31:19.842Z,99649.42
2023-04-17T07:34:21.641Z,99654.13
2023-04-17T07:37:23.235Z,99657.73
2023-04-17T07:40:25.181Z,99657.82
2023-04-17T07:43:27.640Z,99663.08
2023-04-17T07:46:29.344Z,99664.75
2023-04-17T07:49:31.008Z,99663.23
2023-04-17T07:52:32.720Z,99666.61
2023-04-17T07:55:34.317Z,99668.23
2023-04-17T07:58:36.052Z,99672.38
2023-04-17T08:01:37.788Z,99673.21
2023-04-17T08:04:39.778Z,99673.50
2023-04-17T08:07:41.665Z,99676.60
2023-04-17T08:10:43.353Z,99674.29
2023-04-17T08:13:45.013Z,99673.74
2023-04-17T08:16:47.493Z,99675.05
2023-04-17T08:19:49.513Z,99678.52
2023-04-17T08:22:51.130Z,99682.23
2023-04-17T08:25:52.747Z,99681.77
2023-04-17T08:28:54.461Z,99680.41
2023-04-17T08:32:12.792Z,99677.67
2023-04-17T08:35:16.757Z,99683.66
2023-04-17T08:38:18.408Z,99679.44
2023-04-17T08:41:22.073Z,99685.50
2023-04-17T08:44:23.732Z,99687.10
2023-04-17T08:47:25.482Z,99689.02
2023-04-17T08:50:27.320Z,99688.48
2023-04-17T08:53:29.052Z,99690.67
2023-04-17T08:56:30.668Z,99692.20
2023-04-17T08:59:32.743Z,99694.42
2023-04-17T09:02:51.927Z,99697.17
2023-04-17T09:05:57.224Z,99696.43
2023-04-17T09:09:02.259Z,99692.75
2023-04-17T09:12:08.885Z,99691.23
2023-04-17T09:15:17.506Z,99692.40
2023-04-17T09:18:28.023Z,99697.89
2023-04-17T09:21:29.812Z,99694.98
2023-04-17T09:24:35.416Z,99698.48
2023-04-17T09:27:37.212Z,99697.88
2023-04-17T09:30:40.440Z,99696.38
2023-04-17T09:34:03.782Z,99696.25
2023-04-17T09:37:05.475Z,99699.88
2023-04-17T09:40:07.738Z,99694.77
2023-04-17T09:43:10.292Z,99694.23
2023-04-17T09:46:12.815Z,99692.47
2023-04-17T09:49:38.648Z,99688.86
2023-04-17T09:52:40.724Z,99691.58
2023-04-17T09:55:42.634Z,99692.73
2023-04-17T09:58:44.618Z,99692.31
2023-04-17T10:01:46.304Z,99694.23
2023-04-17T10:04:48.128Z,99687.40
2023-04-17T10:07:49.942Z,99683.77
2023-04-17T10:10:51.999Z,99682.02
2023-04-17T10:14:04.495Z,99681.55
2023-04-17T10:17:26.674Z,99679.77
2023-04-17T10:20:28.625Z,99684.60
2023-04-17T10:23:32.352Z,99686.63
2023-04-17T10:26:34.616Z,99681.95
2023-04-17T10:29:55.756Z,99678.91
2023-04-17T10:33:13.058Z,99680.94
2023-04-17T10:36:40.444Z,99675.53
2023-04-17T10:39:50.224Z,99675.23
2023-04-17T10:43:10.456Z,99677.97
2023-04-17T10:46:13.279Z,99676.32
2023-04-17T10:49:15.266Z,99672.77
2023-04-17T10:52:32.231Z,99672.52
2023-04-17T10:55:34.005Z,99672.48
2023-04-17T10:58:39.878Z,99669.14
2023-04-17T11:01:47.736Z,99669.09
2023-04-17T11:05:06.550Z,99669.42
2023-04-17T11:08:09.940Z,99669.61
2023-04-17T11:11:11.609Z,99671.70
2023-04-17T11:14:15.270Z,99674.39
2023-04-17T11:17:17.217Z,99678.96
2023-04-17T11:20:23.798Z,99678.06
2023-04-17T11:23:30.296Z,99678.88
2023-04-17T11:26:31.904Z,99677.71
2023-04-17T11:29:33.664Z,99678.66
2023-04-17T11:32:38.308Z,99683.88
2023-04-17T11:35:41.811Z,99683.29
2023-04-17T11:38:47.723Z,99679.73
2023-04-17T11:41:51.415Z,99682.91
2023-04-17T11:44:53.105Z,99681.79
2023-04-17T11:47:54.865Z,99681.34
2023-04-17T11:51:04.007Z,99683.95
2023-04-17T11:54:05.844Z,99682.98
2023-04-17T11:57:12.801Z,99682.48
2023-04-17T12:00:14.951Z,99680.34
2023-04-17T12:03:36.212Z,99682.16
2023-04-17T12:06:38.219Z,99682.58
2023-04-17T12:09:40.146Z,99684.05
2023-04-17T12:12:41.753Z,99684.67
2023-04-17T12:15:43.675Z,99681.90
2023-04-17T12:18:45.336Z,99680.45
2023-04-17T12:21:47.041Z,99677.28
2023-04-17T12:24:48.793Z,99680.83
2023-04-17T12:27:50.599Z,99679.95
2023-04-17T12:30:52.338Z,99678.69
2023-04-17T12:33:53.940Z,99680.00
2023-04-17T12:36:55.693Z,99678.87
2023-04-17T12:39:57.520Z,99676.92
2023-04-17T12:42:59.140Z,99677.48
2023-04-17T12:46:00.865Z,99675.02
2023-04-17T12:49:02.696Z,99678.20
2023-04-17T12:52:04.407Z,99678.27
2023-04-17T12:55:06.558Z,99678.75
2023-04-17T12:58:08.860Z,99677.29
2023-04-17T13:01:10.652Z,99676.94
2023-04-17T13:04:12.729Z,99670.39
2023-04-17T13:07:14.807Z,99676.41
2023-04-17T13:10:16.562Z,99677.05
2023-04-17T13:13:18.221Z,99673.91
2023-04-17T13:16:19.856Z,99676.78
2023-04-17T13:19:21.461Z,99673.48
2023-04-17T13:22:23.160Z,99674.36
2023-04-17T13:25:25.018Z,99673.98
2023-04-17T13:28:26.707Z,99672.42
2023-04-17T13:31:28.548Z,99675.30
2023-04-17T13:34:30.219Z,99673.38
2023-04-17T13:37:31.882Z,99675.18
2023-04-17T13:40:33.645Z,99677.20
2023-04-17T13:43:35.245Z,99671.30
2023-04-17T13:46:37.128Z,99670.50
2023-04-17T13:49:38.881Z,99669.41
2023-04-17T13:52:40.621Z,99667.70
2023-04-17T13:55:42.317Z,99672.33
2023-04-17T13:58:43.962Z,99669.30
2023-04-17T14:01:45.718Z,99672.16
2023-04-17T14:04:47.519Z,99674.71
2023-04-17T14:07:49.277Z,99675.27
2023-04-17T14:10:50.893Z,99669.96
2023-04-17T14:13:52.457Z,99669.30
2023-04-17T14:16:54.158Z,99668.13
2023-04-17T14:19:55.816Z,99668.77
2023-04-17T14:22:57.527Z,99666.42
2023-04-17T14:25:59.141Z,99661.71
2023-04-17T14:29:00.783Z,99659.52
2023-04-17T14:32:02.616Z,99660.08
2023-04-17T14:35:05.130Z,99657.38
2023-04-17T14:38:07.392Z,99658.89
2023-04-17T14:41:09.088Z,99657.83
2023-04-17T14:44:10.896Z,99656.86
2023-04-17T14:47:12.688Z,99655.08
2023-04-17T14:50:14.509Z,99654.45
2023-04-17T14:53:16.291Z,99650.92
2023-04-17T14:56:18.262Z,99649.22
2023-04-17T14:59:20.358Z,99650.27
2023-04-17T15:02:22.209Z,99651.95
2023-04-17T15:05:24.164Z,99651.80
2023-04-17T15:08:25.820Z,99647.42
2023-04-17T15:11:27.573Z,99648.57
2023-04-17T15:14:29.225Z,99647.44
2023-04-17T15:17:30.956Z,99646.88
2023-04-17T15:20:33.695Z,99646.47
2023-04-17T15:23:37.717Z,99645.27
2023-04-17T15:26:39.394Z,99643.87
2023-04-17T15:29:41.587Z,99643.10
2023-04-17T15:32:44.058Z,99644.23
2023-04-17T15:35:45.873Z,99643.64
2023-04-17T15:38:47.535Z,99648.08
2023-04-17T15:41:49.278Z,99642.27
2023-04-17T15:44:51.015Z,99643.30
2023-04-17T15:47:53.166Z,99644.39
2023-04-17T15:50:55.378Z,99647.25
2023-04-17T15:53:57.127Z,99651.16
2023-04-17T15:56:58.988Z,99651.60
2023-04-17T16:00:00.622Z,99653.02
2023-04-17T16:03:02.473Z,99649.86
2023-04-17T16:06:04.820Z,99649.33
2023-04-17T16:09:06.541Z,99647.61
2023-04-17T16:12:10.041Z,99652.11
2023-04-17T16:15:12.815Z,99651.13
2023-04-17T16:18:14.479Z,99652.49
2023-04-17T16:21:16.090Z,99651.13
2023-04-17T16:24:17.759Z,99656.56
2023-04-17T16:27:19.576Z,99658.77
2023-04-17T16:30:21.846Z,99655.29
2023-04-17T16:33:23.482Z,99659.43
2023-04-17T16:36:25.206Z,99659.88
2023-04-17T16:39:26.953Z,99663.05
2023-04-17T16:42:28.728Z,99665.80
2023-04-17T16:45:30.499Z,99666.54
2023-04-17T16:48:32.372Z,99669.04
2023-04-17T16:51:34.240Z,99671.36
2023-04-17T16:54:35.963Z,99673.77
2023-04-17T16:57:37.702Z,99677.01
2023-04-17T17:00:39.457Z,99675.35
2023-04-17T17:03:41.563Z,99679.38
2023-04-17T17:06:43.443Z,99683.02
2023-04-17T17:09:45.250Z,99686.73
2023-04-17T17:12:46.902Z,99685.55
2023-04-17T17:15:48.949Z,99690.06
2023-04-17T17:18:50.833Z,99690.29
2023-04-17T17:21:52.670Z,99688.40
2023-04-17T17:24:54.581Z,99694.45
2023-04-17T17:27:56.325Z,99692.61
2023-04-17T17:31:08.313Z,99692.10
2023-04-17T17:34:25.568Z,99692.77
2023-04-17T17:37:28.808Z,99701.42
2023-04-17T17:40:30.450Z,99701.84
2023-04-17T17:43:32.097Z,99706.09
2023-04-17T17:46:33.770Z,99709.80
2023-04-17T17:49:35.466Z,99711.31
2023-04-17T17:52:37.158Z,99713.86
2023-04-17T17:55:39.577Z,99713.90
2023-04-17T17:58:41.187Z,99714.95
2023-04-17T18:01:43.026Z,99713.95
2023-04-17T18:04:45.065Z,99716.71
2023-04-17T18:07:47.259Z,99717.95
2023-04-17T18:10:48.885Z,99723.00
2023-04-17T18:13:51.269Z,99721.77
2023-04-17T18:16:52.965Z,99728.76
2023-04-17T18:19:54.732Z,99725.47
2023-04-17T18:22:56.401Z,99724.15
2023-04-17T18:26:02.603Z,99727.64
2023-04-17T18:29:04.558Z,99723.16
2023-04-17T18:32:06.324Z,99723.83
2023-04-17T18:35:08.590Z,99723.98
2023-04-17T18:38:10.357Z,99723.29
2023-04-17T18:41:12.063Z,99723.45
2023-04-17T18:44:13.988Z,99724.23
2023-04-17T18:47:15.714Z,99721.54
2023-04-17T18:50:17.672Z,99724.48
2023-04-17T18:53:19.536Z,99722.17
2023-04-17T18:56:21.466Z,99721.84
2023-04-17T18:59:23.246Z,99721.63
2023-04-17T19:02:25.131Z,99721.05
2023-04-17T19:05:26.923Z,99723.56
2023-04-17T19:08:28.863Z,99723.73
2023-04-17T19:11:31.262Z,99726.55
2023-04-17T19:14:33.026Z,99726.85
2023-04-17T19:17:35.068Z,99724.16
2023-04-17T19:20:37.208Z,99723.27
2023-04-17T19:23:38.834Z,99724.88
2023-04-17T19:26:40.687Z,99724.30
2023-04-17T19:29:42.948Z,99722.19
2023-04-17T19:32:44.724Z,99720.58
2023-04-17T19:35:46.558Z,99719.26
2023-04-17T19:38:48.639Z,99717.89
2023-04-17T19:41:50.641Z,99720.10
2023-04-17T19:44:52.884Z,99714.92
2023-04-17T19:47:54.894Z,99717.50
2023-04-17T19:50:56.822Z,99716.12
2023-04-17T19:53:58.880Z,99711.34
2023-04-17T19:57:00.770Z,99711.20
2023-04-17T20:00:02.681Z,99710.20
2023-04-17T20:03:04.457Z,99707.72
2023-04-17T20:06:06.383Z,99709.58
2023-04-17T20:09:08.395Z,99706.95
2023-04-17T20:12:10.142Z,99704.68
2023-04-17T20:15:11.896Z,99702.02
2023-04-17T20:18:13.647Z,99700.89
2023-04-17T20:21:15.288Z,99699.84
2023-04-17T20:24:16.986Z,99704.23
2023-04-17T20:27:18.679Z,99705.78
2023-04-17T20:30:21.260Z,99702.16
2023-04-17T20:33:23.084Z,99704.64
2023-04-17T20:36:24.838Z,99702.85
2023-04-17T20:39:26.502Z,99700.98
2023-04-17T20:42:28.105Z,99701.95
2023-04-17T20:45:29.822Z,99699.98
2023-04-17T20:48:31.552Z,99696.80
2023-04-17T20:51:33.191Z,99703.27
2023-04-17T20:54:34.960Z,99700.66
2023-04-17T20:57:36.554Z,99703.20
2023-04-17T21:00:44.334Z,99701.96
2023-04-17T21:03:49.369Z,99705.33
2023-04-17T21:06:51.245Z,99705.67
2023-04-17T21:09:53.008Z,99703.40
2023-04-17T21:12:54.813Z,99703.89
2023-04-17T21:15:56.481Z,99705.23
2023-04-17T21:18:58.160Z,99702.48
2023-04-17T21:21:59.766Z,99705.05
2023-04-17T21:25:01.497Z,99707.61
2023-04-17T21:28:03.364Z,99704.16
2023-04-17T21:31:05.047Z,99703.30
2023-04-17T21:34:07.172Z,99701.08
2023-04-17T21:37:08.857Z,99704.35
2023-04-17T21:40:10.903Z,99703.34
2023-04-17T21:43:15.516Z,99699.02
2023-04-17T21:46:17.315Z,99701.92
2023-04-17T21:49:20.216Z,99700.73
2023-04-17T21:52:21.785Z,99703.49
2023-04-17T21:55:23.489Z,99699.34
2023-04-17T21:58:25.377Z,99700.21
2023-04-17T22:01:27.296Z,99700.90
2023-04-17T22:04:29.108Z,99697.28
2023-04-17T22:07:34.055Z,99700.54
2023-04-17T22:10:37.866Z,99698.83
2023-04-17T22:13:39.546Z,99701.08
2023-04-17T22:16:41.185Z,99697.98
2023-04-17T22:19:42.795Z,99699.52
2023-04-17T22:23:22.395Z,99699.20
2023-04-17T22:27:01.944Z,99700.25
2023-04-17T22:30:41.142Z,99702.69
2023-04-17T22:34:20.750Z,99704.38
2023-04-17T22:38:00.211Z,99703.50
2023-04-17T22:41:39.713Z,99704.52
2023-04-17T22:45:19.175Z,99707.77
2023-04-17T22:48:58.633Z,99704.80
2023-04-17T22:52:38.297Z,99706.17
2023-04-17T22:56:17.673Z,99703.35
2023-04-17T22:59:57.647Z,99702.81
2023-04-17T23:03:37.216Z,99704.13
2023-04-17T23:07:17.070Z,99702.42
2023-04-17T23:10:19.979Z,99702.10
2023-04-17T23:13:21.630Z,99696.61
2023-04-17T23:16:23.234Z,99695.77
2023-04-17T23:19:24.899Z,99690.26
2023-04-17T23:22:26.687Z,99690.11
2023-04-17T23:25:28.361Z,99694.80
2023-04-17T23:28:30.250Z,99687.62
2023-04-17T23:31:31.962Z,99691.26
2023-04-17T23:34:33.842Z,99690.29
2023-04-17T23:37:35.739Z,99688.60
2023-04-17T23:40:37.461Z,99689.17
2023-04-17T23:43:39.157Z,99684.20
2023-04-17T23:46:40.922Z,99686.14
2023-04-17T23:49:42.646Z,99684.96
2023-04-17T23:52:44.522Z,99687.04
2023-04-17T23:55:46.253Z,99683.59
2023-04-17T23:58:48.076Z,99683.59
